Time;durP1;ratioP1;P1;durP2;ratioP2;P2;SDS_P1;SDS_P2;PMS_P1;PMS_P2;Temp;Humidity;BMP_temperature;BMP_pressure;BME280_temperature;BME280_humidity;BME280_pressure;Samples;Min_cycle;Max_cycle;Signal;HPM_P1;HPM_P2
2023/03/21 00:00:26;;;;;;;10.87;6.83;;;;;;;11.22;57.71;96405.53;5030533;28;20477;-69
2023/03/21 00:02:52;;;;;;;10.00;6.80;;;;;;;11.18;57.85;96406.59;5030192;28;20175;-69
2023/03/21 00:05:19;;;;;;;9.20;6.73;;;;;;;11.13;58.13;96403.34;5030317;28;20278;-69
2023/03/21 00:07:45;;;;;;;6.50;5.90;;;;;;;11.28;57.59;96400.91;5029795;28;20228;-69
2023/03/21 00:10:11;;;;;;;6.77;6.27;;;;;;;11.20;57.97;96393.41;5029921;28;20525;-69
2023/03/21 00:12:36;;;;;;;7.40;6.70;;;;;;;11.21;57.82;96400.34;5030072;28;20517;-69
2023/03/21 00:15:11;;;;;;;6.30;5.70;;;;;;;11.22;57.84;96402.06;5029821;28;20673;-70
2023/03/21 00:17:38;;;;;;;7.43;6.63;;;;;;;11.18;57.94;96390.84;5029652;28;20191;-69
2023/03/21 00:20:07;;;;;;;8.90;6.87;;;;;;;11.12;57.97;96392.91;5029911;28;20410;-69
2023/03/21 00:22:35;;;;;;;6.87;6.17;;;;;;;11.17;57.78;96391.78;5029860;28;20476;-69
2023/03/21 00:25:01;;;;;;;7.30;6.70;;;;;;;11.17;58.16;96389.16;5029705;28;20434;-69
2023/03/21 00:27:26;;;;;;;7.67;6.60;;;;;;;11.19;57.97;96389.91;5029334;28;20457;-69
2023/03/21 00:29:52;;;;;;;6.43;5.57;;;;;;;11.09;58.45;96390.41;5029793;28;20167;-69
2023/03/21 00:32:19;;;;;;;8.93;6.60;;;;;;;11.19;58.12;96386.44;5029450;28;20255;-69
2023/03/21 00:34:45;;;;;;;7.90;7.10;;;;;;;11.20;58.30;96386.38;5029384;28;20410;-69
2023/03/21 00:37:13;;;;;;;10.20;6.30;;;;;;;11.19;58.37;96375.94;5029251;28;20411;-70
2023/03/21 00:39:38;;;;;;;11.70;6.83;;;;;;;11.19;58.32;96382.03;5029923;28;20497;-69
2023/03/21 00:42:04;;;;;;;15.70;8.90;;;;;;;11.14;58.58;96370.03;5029434;28;20403;-69
2023/03/21 00:44:35;;;;;;;8.10;7.30;;;;;;;11.08;58.83;96381.69;5029016;28;20172;-69
2023/03/21 00:47:02;;;;;;;9.03;7.97;;;;;;;11.13;58.80;96371.81;5028994;28;20256;-69
2023/03/21 00:49:32;;;;;;;7.90;7.10;;;;;;;11.14;58.77;96370.03;5029162;28;20878;-69
2023/03/21 00:51:58;;;;;;;9.67;7.50;;;;;;;11.14;58.72;96372.66;5029383;28;20417;-69
2023/03/21 00:54:24;;;;;;;11.30;8.53;;;;;;;11.16;58.39;96365.56;5029086;28;20445;-69
2023/03/21 00:56:50;;;;;;;9.27;7.20;;;;;;;11.17;58.72;96368.13;5027647;28;21051;-69
2023/03/21 00:59:16;;;;;;;10.93;7.10;;;;;;;11.19;58.71;96358.38;5029155;28;20510;-69
2023/03/21 01:01:41;;;;;;;7.77;7.07;;;;;;;11.18;58.45;96354.06;5029333;28;20178;-69
2023/03/21 01:04:12;;;;;;;7.93;6.67;;;;;;;11.16;58.35;96353.28;5028860;28;20942;-69
2023/03/21 01:06:38;;;;;;;7.80;6.20;;;;;;;11.11;58.63;96349.19;5028825;28;20722;-68
2023/03/21 01:09:05;;;;;;;9.80;6.50;;;;;;;11.07;58.64;96361.59;5029111;28;20406;-70
2023/03/21 01:11:31;;;;;;;26.50;9.30;;;;;;;11.05;58.34;96341.56;5028721;28;20413;-70
2023/03/21 01:13:57;;;;;;;13.77;7.87;;;;;;;11.06;58.57;96349.41;5028889;28;21270;-70
2023/03/21 01:16:24;;;;;;;9.30;6.10;;;;;;;11.00;58.96;96345.25;5028286;28;20203;-70
2023/03/21 01:18:49;;;;;;;11.20;6.17;;;;;;;11.02;58.64;96350.44;5028930;28;20881;-70
2023/03/21 01:21:15;;;;;;;10.27;5.90;;;;;;;10.93;59.16;96343.84;5028369;28;20411;-70
2023/03/21 01:23:42;;;;;;;7.93;6.40;;;;;;;11.03;58.96;96346.88;5028796;28;20258;-70
2023/03/21 01:26:10;;;;;;;13.53;5.67;;;;;;;11.01;58.96;96336.47;5028316;28;20430;-70
2023/03/21 01:28:37;;;;;;;7.37;6.37;;;;;;;10.94;59.03;96342.09;5028530;28;20441;-70
2023/03/21 01:31:04;;;;;;;7.60;6.90;;;;;;;10.88;59.44;96345.84;5028411;28;20495;-69
2023/03/21 01:33:30;;;;;;;11.93;6.77;;;;;;;10.94;59.20;96348.19;5028346;28;20415;-69
2023/03/21 01:35:56;;;;;;;7.53;6.30;;;;;;;10.92;59.26;96343.94;5028398;28;20438;-69
2023/03/21 01:38:21;;;;;;;16.90;7.40;;;;;;;10.99;59.23;96345.34;5028417;28;20473;-69
2023/03/21 01:40:48;;;;;;;10.10;7.50;;;;;;;11.01;58.90;96346.13;5028524;28;20257;-69
2023/03/21 01:43:19;;;;;;;7.07;6.10;;;;;;;11.01;59.03;96348.75;5028682;28;20171;-69
2023/03/21 01:46:06;;;;;;;8.23;5.93;;;;;;;11.01;58.98;96341.72;5027960;28;20489;-69
2023/03/21 01:48:35;;;;;;;7.83;6.00;;;;;;;11.01;58.86;96343.50;5028107;28;20496;-69
2023/03/21 01:51:02;;;;;;;9.50;7.10;;;;;;;10.75;59.80;96340.31;5027956;28;20410;-69
2023/03/21 01:53:30;;;;;;;6.37;5.77;;;;;;;10.68;60.39;96343.28;5028128;28;20398;-69
2023/03/21 01:56:05;;;;;;;6.80;6.10;;;;;;;10.60;60.31;96333.13;5027830;28;20437;-69
2023/03/21 01:58:32;;;;;;;16.17;6.43;;;;;;;10.73;60.21;96339.53;5027927;28;20966;-70
2023/03/21 02:00:58;;;;;;;6.83;6.13;;;;;;;10.72;60.64;96337.78;5028047;28;20402;-70
2023/03/21 02:03:28;;;;;;;8.60;6.03;;;;;;;10.75;60.19;96334.22;5028215;28;20410;-70
2023/03/21 02:06:14;;;;;;;6.83;6.17;;;;;;;10.73;59.88;96336.91;5027739;28;20469;-70
2023/03/21 02:08:39;;;;;;;6.87;6.00;;;;;;;10.74;60.15;96332.50;5028166;28;20745;-70
2023/03/21 02:11:06;;;;;;;7.30;5.30;;;;;;;10.80;59.28;96333.06;5027655;28;20410;-70
2023/03/21 02:13:32;;;;;;;6.27;5.67;;;;;;;10.77;59.76;96327.97;5027706;28;20868;-70
2023/03/21 02:16:04;;;;;;;9.80;6.30;;;;;;;10.84;59.61;96325.03;5027320;28;20427;-70
2023/03/21 02:18:42;;;;;;;11.17;6.40;;;;;;;10.87;59.17;96312.66;5027324;28;20204;-71
2023/03/21 02:21:36;;;;;;;12.57;6.73;;;;;;;10.84;59.11;96317.16;5027494;28;20594;-70
2023/03/21 02:24:10;;;;;;;6.10;5.50;;;;;;;10.85;59.29;96318.88;5027434;28;20451;-70
2023/03/21 02:27:02;;;;;;;5.90;5.37;;;;;;;10.81;59.47;96316.38;5027279;28;20946;-70
2023/03/21 02:30:04;;;;;;;7.10;5.00;;;;;;;10.83;59.35;96310.22;5026262;28;20882;-69
2023/03/21 02:32:30;;;;;;;7.20;5.33;;;;;;;10.54;60.28;96315.03;5027763;28;20397;-69
2023/03/21 02:35:20;;;;;;;5.70;5.20;;;;;;;10.47;61.04;96308.38;5027650;28;20935;-69
2023/03/21 02:38:00;;;;;;;6.23;5.60;;;;;;;10.37;61.37;96303.53;5027223;28;20199;-69
2023/03/21 02:40:31;;;;;;;7.63;6.93;;;;;;;10.17;62.20;96308.75;5027398;28;20406;-69
2023/03/21 02:43:26;;;;;;;7.33;6.07;;;;;;;10.14;62.28;96311.53;5026859;28;20413;-69
2023/03/21 02:45:57;;;;;;;6.93;5.90;;;;;;;10.16;62.57;96309.69;5026628;28;20540;-69
2023/03/21 02:48:30;;;;;;;5.73;5.10;;;;;;;10.19;61.84;96309.53;5027327;28;20410;-69
2023/03/21 02:51:01;;;;;;;6.80;5.80;;;;;;;10.34;61.77;96308.88;5027482;28;20449;-69
2023/03/21 02:53:32;;;;;;;7.43;6.17;;;;;;;10.27;62.48;96299.56;5027085;28;20433;-69
2023/03/21 02:56:00;;;;;;;9.73;7.37;;;;;;;10.33;62.45;96308.97;5027472;28;20963;-69
2023/03/21 02:58:28;;;;;;;10.00;6.40;;;;;;;10.25;62.56;96309.28;5026965;28;20453;-69
2023/03/21 03:00:55;;;;;;;7.37;6.67;;;;;;;10.35;62.50;96300.13;5027308;28;20896;-69
2023/03/21 03:03:21;;;;;;;10.30;6.40;;;;;;;10.31;62.94;96303.78;5027015;28;20422;-69
2023/03/21 03:05:54;;;;;;;10.53;7.20;;;;;;;10.41;61.92;96292.88;5027139;28;20440;-69
2023/03/21 03:08:29;;;;;;;6.37;5.77;;;;;;;10.26;63.00;96300.50;5027576;28;20707;-69
2023/03/21 03:11:15;;;;;;;7.00;6.30;;;;;;;10.28;62.79;96297.81;5027427;28;20459;-69
2023/03/21 03:14:04;;;;;;;6.90;6.00;;;;;;;10.35;62.51;96307.13;5027703;28;20811;-69
2023/03/21 03:16:43;;;;;;;14.63;6.47;;;;;;;10.38;62.61;96301.75;5028397;28;20473;-68
2023/03/21 03:19:19;;;;;;;7.23;6.10;;;;;;;10.52;61.87;96303.75;5029098;28;20815;-69
2023/03/21 03:21:55;;;;;;;7.60;6.30;;;;;;;10.55;62.18;96306.22;5032279;28;20410;-69
2023/03/21 03:24:26;;;;;;;9.60;6.00;;;;;;;10.45;62.14;96308.41;5032107;28;20421;-69
2023/03/21 03:26:57;;;;;;;8.37;7.40;;;;;;;10.52;61.92;96290.63;5031813;28;20529;-69
2023/03/21 03:29:24;;;;;;;7.23;6.50;;;;;;;10.44;62.49;96293.63;5032002;28;20424;-69
2023/03/21 03:32:30;;;;;;;6.87;6.17;;;;;;;10.55;61.86;96295.75;5032101;28;20418;-70
2023/03/21 03:34:57;;;;;;;8.90;6.60;;;;;;;10.30;62.93;96296.84;5030948;28;20463;-68
2023/03/21 03:37:27;;;;;;;15.07;7.20;;;;;;;10.42;62.26;96297.19;5031343;28;20422;-69
2023/03/21 03:39:59;;;;;;;25.90;9.20;;;;;;;10.36;62.46;96291.31;5031078;28;21077;-68
2023/03/21 03:42:51;;;;;;;13.40;6.73;;;;;;;10.38;62.97;96289.47;5031048;28;20406;-69
2023/03/21 03:45:19;;;;;;;14.67;6.97;;;;;;;10.35;62.81;96288.78;5029774;28;20466;-68
2023/03/21 03:48:00;;;;;;;12.10;6.97;;;;;;;10.36;62.39;96290.47;5030977;28;20497;-69
2023/03/21 03:50:31;;;;;;;10.03;6.70;;;;;;;10.32;62.41;96289.78;5030446;28;20418;-69
2023/03/21 03:53:04;;;;;;;7.10;6.40;;;;;;;10.26;62.58;96297.03;5030484;28;21123;-68
2023/03/21 03:55:33;;;;;;;9.87;6.63;;;;;;;10.31;63.12;96290.69;5030799;28;20426;-70
2023/03/21 03:58:00;;;;;;;7.30;6.30;;;;;;;10.30;62.54;96288.97;5030543;28;20616;-68
2023/03/21 04:00:26;;;;;;;10.60;5.93;;;;;;;10.29;62.33;96292.50;5030517;28;20422;-70
2023/03/21 04:02:52;;;;;;;19.33;9.67;;;;;;;10.37;61.75;96287.78;5030538;28;20421;-69
2023/03/21 04:05:20;;;;;;;15.83;7.70;;;;;;;10.39;61.66;96292.94;5030069;28;20445;-68
2023/03/21 04:07:50;;;;;;;8.83;6.20;;;;;;;10.42;61.92;96295.44;5029873;28;20829;-70
2023/03/21 04:10:16;;;;;;;6.30;5.73;;;;;;;10.45;62.00;96289.22;5030356;28;20526;-70
2023/03/21 04:12:42;;;;;;;7.03;6.33;;;;;;;10.37;61.77;96289.56;5030159;28;20919;-69
2023/03/21 04:15:08;;;;;;;7.00;5.90;;;;;;;10.30;62.06;96285.47;5029995;28;20438;-69
2023/03/21 04:17:33;;;;;;;7.37;6.17;;;;;;;10.33;61.73;96291.47;5029316;28;20245;-70
2023/03/21 04:19:59;;;;;;;7.33;6.50;;;;;;;10.36;61.94;96293.09;5029902;28;20410;-69
2023/03/21 04:22:25;;;;;;;9.00;6.20;;;;;;;10.23;62.16;96284.91;5029628;28;20306;-69
2023/03/21 04:24:52;;;;;;;6.60;6.00;;;;;;;10.27;62.12;96289.06;5029616;28;20264;-70
2023/03/21 04:27:17;;;;;;;9.30;6.70;;;;;;;10.29;62.43;96295.13;5029585;28;20425;-70
2023/03/21 04:29:43;;;;;;;9.63;6.50;;;;;;;10.22;62.25;96288.44;5029691;28;20415;-69
2023/03/21 04:32:15;;;;;;;7.83;6.10;;;;;;;10.16;62.66;96288.72;5028436;28;20307;-70
2023/03/21 04:34:42;;;;;;;15.90;8.20;;;;;;;10.06;62.70;96279.53;5029417;28;20183;-69
2023/03/21 04:37:10;;;;;;;15.23;6.60;;;;;;;10.10;62.69;96288.97;5029266;28;20780;-70
2023/03/21 04:39:37;;;;;;;10.00;6.57;;;;;;;10.05;63.42;96293.56;5029610;28;20489;-70
2023/03/21 04:42:03;;;;;;;10.47;5.50;;;;;;;10.15;62.99;96285.22;5029726;28;20438;-70
2023/03/21 04:44:29;;;;;;;6.73;6.03;;;;;;;9.94;63.20;96288.78;5029174;28;20409;-69
2023/03/21 04:46:54;;;;;;;6.83;6.10;;;;;;;9.96;63.89;96276.47;5032480;28;20410;-69
2023/03/21 04:49:20;;;;;;;6.10;5.60;;;;;;;9.95;63.53;96283.47;5035576;28;20234;-69
2023/03/21 04:51:45;;;;;;;7.40;6.10;;;;;;;9.94;64.64;96288.78;5033961;28;20171;-69
2023/03/21 04:54:12;;;;;;;13.00;6.23;;;;;;;9.98;64.24;96284.28;5032545;28;20254;-69
2023/03/21 04:56:38;;;;;;;14.63;6.87;;;;;;;10.03;64.05;96280.50;5029306;28;20227;-69
2023/03/21 04:59:09;;;;;;;17.17;7.23;;;;;;;10.10;63.85;96283.72;5029383;28;20515;-69
2023/03/21 05:01:35;;;;;;;19.13;7.67;;;;;;;10.15;63.86;96277.34;5029493;28;20912;-69
2023/03/21 05:04:02;;;;;;;20.07;7.33;;;;;;;10.11;64.27;96280.16;5029099;28;20460;-69
2023/03/21 05:06:28;;;;;;;11.60;7.20;;;;;;;10.08;64.09;96281.16;5028705;28;20195;-68
2023/03/21 05:09:04;;;;;;;25.93;8.07;;;;;;;10.13;64.53;96283.59;5029119;28;20499;-69
2023/03/21 05:11:31;;;;;;;33.57;8.33;;;;;;;10.18;64.24;96281.59;5028990;28;20413;-69
2023/03/21 05:13:58;;;;;;;10.57;6.63;;;;;;;10.22;63.62;96277.94;5028865;28;20414;-70
2023/03/21 05:16:25;;;;;;;8.87;6.43;;;;;;;10.07;63.98;96286.50;5028632;28;20530;-69
2023/03/21 05:18:53;;;;;;;12.83;6.80;;;;;;;10.04;64.31;96274.38;5028917;28;20477;-69
2023/03/21 05:21:19;;;;;;;21.20;7.13;;;;;;;10.04;64.71;96277.00;5028962;28;20402;-69
2023/03/21 05:23:52;;;;;;;11.80;7.60;;;;;;;10.08;64.34;96280.31;5028973;28;21280;-69
2023/03/21 05:26:18;;;;;;;10.53;8.40;;;;;;;10.00;63.77;96280.66;5028337;28;20426;-69
2023/03/21 05:28:44;;;;;;;11.83;7.57;;;;;;;9.96;63.99;96287.78;5028716;28;20456;-70
2023/03/21 05:31:14;;;;;;;13.63;7.63;;;;;;;9.99;64.11;96284.19;5028568;28;20405;-70
2023/03/21 05:33:39;;;;;;;13.93;6.80;;;;;;;10.02;63.51;96284.06;5028517;28;20510;-70
2023/03/21 05:36:05;;;;;;;20.07;7.37;;;;;;;10.02;64.16;96277.97;5027811;28;20472;-69
2023/03/21 05:38:31;;;;;;;8.93;5.80;;;;;;;10.00;64.33;96285.06;5028358;28;20207;-69
2023/03/21 05:40:56;;;;;;;8.20;6.33;;;;;;;10.08;63.72;96281.16;5028418;28;20192;-70
2023/03/21 05:43:21;;;;;;;9.90;7.13;;;;;;;10.06;64.27;96287.38;5016826;28;20184;-69
2023/03/21 05:45:47;;;;;;;6.60;6.00;;;;;;;9.78;65.22;96293.84;5027855;28;21078;-69
2023/03/21 05:48:12;;;;;;;8.20;6.20;;;;;;;9.93;64.42;96289.72;5026344;28;20159;-69
2023/03/21 05:50:38;;;;;;;25.60;8.00;;;;;;;10.02;64.60;96291.94;5027131;28;20171;-69
2023/03/21 05:53:03;;;;;;;21.07;8.57;;;;;;;10.12;63.82;96292.38;5028256;28;20194;-69
2023/03/21 05:55:29;;;;;;;19.80;8.60;;;;;;;10.06;63.89;96295.25;5028164;28;20259;-70
2023/03/21 05:57:54;;;;;;;19.00;8.30;;;;;;;10.03;64.01;96296.25;5027947;28;20199;-70
2023/03/21 06:00:21;;;;;;;6.80;6.07;;;;;;;10.12;63.61;96298.47;5028260;28;20852;-70
2023/03/21 06:02:46;;;;;;;6.97;5.87;;;;;;;10.19;63.58;96293.81;5026681;28;20210;-70
2023/03/21 06:05:11;;;;;;;8.33;6.30;;;;;;;10.15;63.50;96295.69;5027823;28;20458;-70
2023/03/21 06:07:37;;;;;;;45.70;11.40;;;;;;;10.26;63.15;96286.53;5027616;28;20689;-69
2023/03/21 06:10:04;;;;;;;34.70;10.00;;;;;;;10.34;63.32;96290.53;5024954;28;20167;-68
2023/03/21 06:12:29;;;;;;;31.73;8.70;;;;;;;10.32;62.58;96289.78;5025530;28;20589;-69
2023/03/21 06:14:55;;;;;;;27.93;11.10;;;;;;;10.31;63.13;96288.06;5024013;28;20449;-69
2023/03/21 06:17:20;;;;;;;8.80;6.10;;;;;;;10.33;62.82;96285.38;5025171;28;20175;-70
2023/03/21 06:19:46;;;;;;;20.50;8.00;;;;;;;10.33;62.92;96288.00;5023144;28;20202;-70
2023/03/21 06:22:11;;;;;;;43.87;10.00;;;;;;;10.34;62.47;96287.91;5031711;28;20182;-70
2023/03/21 06:24:37;;;;;;;40.37;12.83;;;;;;;10.32;62.83;96286.28;5025188;28;20347;-70
2023/03/21 06:27:02;;;;;;;39.80;9.77;;;;;;;10.43;62.42;96296.28;5029566;28;20180;-68
2023/03/21 06:29:28;;;;;;;57.20;10.97;;;;;;;10.45;62.26;96297.94;5025083;28;20616;-71
2023/03/21 06:31:53;;;;;;;79.33;14.00;;;;;;;10.51;62.17;96294.16;5029596;28;20457;-70
2023/03/21 06:34:19;;;;;;;31.63;9.37;;;;;;;10.41;62.64;96292.88;5028719;28;20178;-69
2023/03/21 06:36:45;;;;;;;14.43;7.30;;;;;;;10.54;61.62;96294.88;5019617;28;20195;-69
2023/03/21 06:39:11;;;;;;;46.10;11.53;;;;;;;10.56;61.82;96298.31;5021035;28;20302;-70
2023/03/21 06:41:36;;;;;;;53.83;12.17;;;;;;;10.53;62.18;96293.16;5022324;28;20525;-69
2023/03/21 06:44:02;;;;;;;17.23;7.83;;;;;;;10.27;63.47;96303.97;5022256;28;20261;-69
2023/03/21 06:46:28;;;;;;;20.17;9.10;;;;;;;10.15;63.60;96297.47;5020966;28;20215;-69
2023/03/21 06:48:53;;;;;;;27.13;9.07;;;;;;;10.30;63.79;96299.47;5022497;28;20422;-67
2023/03/21 06:51:19;;;;;;;18.97;8.17;;;;;;;10.46;63.03;96297.00;5021174;28;20523;-70
2023/03/21 06:53:44;;;;;;;13.37;7.87;;;;;;;10.51;62.92;96299.41;5023332;28;20174;-68
2023/03/21 06:56:11;;;;;;;33.23;9.33;;;;;;;10.45;63.07;96302.34;5024950;28;20321;-70
2023/03/21 06:58:37;;;;;;;14.13;7.73;;;;;;;10.53;62.68;96292.31;5022292;28;20295;-69
2023/03/21 07:01:03;;;;;;;17.20;8.57;;;;;;;10.66;62.52;96298.72;5021930;28;20467;-69
2023/03/21 07:03:30;;;;;;;14.57;8.00;;;;;;;10.75;62.20;96294.84;5022916;28;20640;-70
2023/03/21 07:05:56;;;;;;;14.83;6.93;;;;;;;10.84;61.43;96299.63;5022288;28;20436;-71
2023/03/21 07:08:22;;;;;;;8.77;7.00;;;;;;;10.83;61.33;96290.06;5023519;28;20429;-69
2023/03/21 07:10:48;;;;;;;16.77;8.17;;;;;;;10.91;61.15;96294.97;5023826;28;20399;-70
2023/03/21 07:13:14;;;;;;;15.20;7.07;;;;;;;10.90;61.29;96293.25;5024116;28;20265;-70
2023/03/21 07:15:40;;;;;;;9.20;7.30;;;;;;;10.88;61.19;96298.56;5022751;28;20450;-70
2023/03/21 07:18:07;;;;;;;26.07;9.73;;;;;;;10.92;61.23;96289.66;5025313;28;20454;-70
2023/03/21 07:20:34;;;;;;;18.37;8.93;;;;;;;11.02;61.10;96300.56;5024134;28;20185;-70
2023/03/21 07:23:00;;;;;;;22.13;9.67;;;;;;;10.86;61.80;96295.16;5023656;28;20860;-69
2023/03/21 07:25:26;;;;;;;18.70;7.77;;;;;;;10.98;61.23;96293.75;5024587;28;20525;-70
2023/03/21 07:27:52;;;;;;;11.33;7.10;;;;;;;10.93;61.56;96296.59;5025260;28;20202;-70
2023/03/21 07:30:18;;;;;;;15.33;8.67;;;;;;;11.01;61.26;96298.88;5023193;28;20470;-71
2023/03/21 07:32:44;;;;;;;13.68;7.60;;;;;;;11.01;60.66;96293.63;5022751;28;20447;-69
2023/03/21 07:35:12;;;;;;;15.07;8.27;;;;;;;11.13;60.49;96286.94;5023388;28;20230;-69
2023/03/21 07:37:38;;;;;;;44.20;11.60;;;;;;;11.29;60.19;96287.03;5022825;28;20418;-70
2023/03/21 07:40:12;;;;;;;8.27;7.23;;;;;;;11.05;60.83;96294.31;5028501;28;20438;-69
2023/03/21 07:42:39;;;;;;;20.30;7.60;;;;;;;11.16;60.85;96290.25;5032661;28;20457;-70
2023/03/21 07:45:06;;;;;;;12.07;7.07;;;;;;;11.30;59.74;96294.00;5034753;28;20514;-70
2023/03/21 07:47:32;;;;;;;11.47;7.70;;;;;;;11.14;61.00;96289.47;5037445;28;20402;-69
2023/03/21 07:49:57;;;;;;;9.70;6.60;;;;;;;11.13;60.61;96294.81;5038416;28;20466;-69
2023/03/21 07:52:23;;;;;;;9.90;6.57;;;;;;;11.28;60.31;96293.22;5031135;28;20178;-70
2023/03/21 07:54:48;;;;;;;20.30;8.07;;;;;;;11.40;60.04;96290.84;5027627;28;20203;-69
2023/03/21 07:57:14;;;;;;;11.77;6.77;;;;;;;11.61;59.32;96294.19;5032250;28;20186;-69
2023/03/21 07:59:39;;;;;;;13.90;7.00;;;;;;;11.85;58.92;96288.63;5033986;28;20203;-71
2023/03/21 08:02:06;;;;;;;13.50;8.33;;;;;;;11.99;58.25;96291.44;5030627;28;20950;-69
2023/03/21 08:04:31;;;;;;;16.67;9.98;;;;;;;12.33;57.38;96287.06;5023862;28;20472;-69
2023/03/21 08:06:57;;;;;;;16.58;9.88;;;;;;;12.33;56.26;96287.06;5028157;28;20413;-69
2023/03/21 08:09:22;;;;;;;11.67;8.13;;;;;;;12.67;56.16;96288.72;5029306;28;20170;-68
2023/03/21 08:11:48;;;;;;;17.17;9.20;;;;;;;12.89;54.83;96284.94;5037667;28;20187;-69
2023/03/21 08:14:13;;;;;;;24.53;10.27;;;;;;;13.02;54.80;96279.84;5028900;28;20207;-68
2023/03/21 08:16:39;;;;;;;25.77;10.43;;;;;;;12.94;54.64;96277.63;5027399;28;20689;-69
2023/03/21 08:19:04;;;;;;;9.10;6.90;;;;;;;12.29;56.47;96272.38;5035690;28;20278;-69
2023/03/21 08:21:30;;;;;;;18.02;8.85;;;;;;;12.42;55.61;96276.03;5028427;28;20484;-69
2023/03/21 08:23:55;;;;;;;10.37;7.40;;;;;;;12.14;56.92;96279.28;5029544;28;20243;-70
2023/03/21 08:26:25;;;;;;;18.70;9.00;;;;;;;12.71;55.14;96276.28;5028969;28;20922;-70
2023/03/21 08:28:50;;;;;;;11.13;7.40;;;;;;;12.71;54.73;96276.28;5028778;28;20427;-69
2023/03/21 08:31:16;;;;;;;7.00;6.40;;;;;;;12.35;56.41;96269.38;5028786;28;20537;-69
2023/03/21 08:33:42;;;;;;;14.97;7.87;;;;;;;12.79;55.04;96268.78;5028957;28;20175;-71
2023/03/21 08:36:09;;;;;;;11.50;7.37;;;;;;;12.91;53.75;96272.53;5024387;28;20770;-70
2023/03/21 08:38:34;;;;;;;13.43;7.97;;;;;;;12.73;53.73;96271.75;5028059;28;20973;-70
2023/03/21 08:41:00;;;;;;;11.40;6.50;;;;;;;12.67;53.76;96270.31;5028097;28;20409;-68
2023/03/21 08:43:27;;;;;;;19.37;8.00;;;;;;;12.85;53.55;96275.50;5035305;28;20280;-70
2023/03/21 08:45:52;;;;;;;16.00;6.20;;;;;;;12.87;53.01;96261.34;5030905;28;20211;-69
2023/03/21 08:48:18;;;;;;;25.50;8.33;;;;;;;13.10;52.71;96269.72;5027781;28;20433;-70
2023/03/21 08:50:44;;;;;;;11.73;6.80;;;;;;;13.10;52.22;96275.00;5025614;28;20437;-70
2023/03/21 08:53:09;;;;;;;11.43;6.90;;;;;;;12.59;54.22;96276.91;5027688;28;20422;-68
2023/03/21 08:55:35;;;;;;;21.27;6.70;;;;;;;12.76;53.78;96273.38;5028156;28;20196;-70
2023/03/21 08:58:00;;;;;;;25.67;8.83;;;;;;;13.14;52.27;96276.53;5027737;28;20625;-68
2023/03/21 09:00:27;;;;;;;6.40;5.40;;;;;;;12.88;52.64;96268.28;5012572;28;20172;-69
2023/03/21 09:02:53;;;;;;;10.30;6.20;;;;;;;12.91;53.24;96265.47;5008774;28;20525;-70
2023/03/21 09:05:19;;;;;;;6.47;5.07;;;;;;;12.97;52.47;96271.31;5008563;28;20431;-71
2023/03/21 09:08:05;;;;;;;27.10;8.53;;;;;;;13.39;51.99;96268.09;5008897;28;20415;-70
2023/03/21 09:10:30;;;;;;;16.23;6.80;;;;;;;13.59;51.59;96260.84;5005484;28;20625;-70
2023/03/21 09:12:56;;;;;;;9.48;5.90;;;;;;;13.21;52.61;96262.06;4995705;28;20575;-70
2023/03/21 09:15:27;;;;;;;7.80;6.57;;;;;;;12.90;53.92;96266.41;5002370;28;20215;-70
2023/03/21 09:17:55;;;;;;;6.40;5.80;;;;;;;13.01;52.84;96262.31;5004168;28;20585;-71
2023/03/21 09:20:29;;;;;;;8.63;5.40;;;;;;;13.21;53.18;96254.16;5012970;28;20442;-69
2023/03/21 09:22:55;;;;;;;14.60;6.53;;;;;;;13.57;51.91;96255.66;5011558;28;20453;-70
2023/03/21 09:25:22;;;;;;;8.33;5.80;;;;;;;13.32;52.52;96257.06;4990489;28;20440;-68
2023/03/21 09:27:48;;;;;;;6.53;5.60;;;;;;;13.42;51.89;96246.84;4985581;28;20451;-69
2023/03/21 09:30:17;;;;;;;11.40;6.40;;;;;;;13.59;51.26;96252.94;5005367;28;20530;-71
2023/03/21 09:32:48;;;;;;;10.13;6.13;;;;;;;13.64;51.02;96253.50;4993871;28;21308;-69
2023/03/21 09:35:17;;;;;;;9.60;6.30;;;;;;;13.93;49.63;96255.25;4985569;28;20842;-70
2023/03/21 09:37:44;;;;;;;9.30;5.57;;;;;;;13.73;49.69;96251.19;4984975;28;20431;-71
2023/03/21 09:40:18;;;;;;;73.77;10.57;;;;;;;13.83;48.76;96243.56;4998228;28;20447;-69
2023/03/21 09:42:47;;;;;;;30.53;6.80;;;;;;;13.72;48.55;96244.22;4997089;28;20495;-68
2023/03/21 09:45:20;;;;;;;69.37;10.70;;;;;;;14.19;47.60;96244.94;5005135;28;21126;-72
2023/03/21 09:47:52;;;;;;;31.23;7.63;;;;;;;14.54;47.13;96247.25;5018554;28;20421;-68
2023/03/21 09:50:30;;;;;;;38.63;8.87;;;;;;;14.75;46.68;96245.91;5034028;28;20445;-69
2023/03/21 09:53:12;;;;;;;13.23;6.20;;;;;;;14.72;46.91;96240.81;5019293;28;20464;-69
2023/03/21 09:55:41;;;;;;;5.80;5.30;;;;;;;14.39;47.77;96241.09;5027154;28;21108;-71
2023/03/21 09:58:13;;;;;;;9.53;6.30;;;;;;;14.23;48.36;96237.69;5025760;28;20493;-70
2023/03/21 10:00:42;;;;;;;25.63;8.53;;;;;;;14.59;47.38;96240.72;5037985;28;20437;-69
2023/03/21 10:03:33;;;;;;;28.23;6.90;;;;;;;14.17;47.86;96234.50;5026679;28;20452;-70
2023/03/21 10:06:06;;;;;;;12.50;6.73;;;;;;;14.78;46.95;96237.75;5016106;28;20449;-69
2023/03/21 10:08:36;;;;;;;7.70;4.90;;;;;;;14.66;46.46;96235.91;5026488;28;20429;-68
2023/03/21 10:11:11;;;;;;;14.70;5.13;;;;;;;15.02;45.25;96237.16;5033853;28;20433;-69
2023/03/21 10:13:51;;;;;;;6.93;5.47;;;;;;;15.50;43.98;96231.44;5027243;28;20506;-69
2023/03/21 10:16:29;;;;;;;8.13;5.17;;;;;;;15.75;43.41;96220.06;5026286;28;20940;-68
2023/03/21 10:18:58;;;;;;;5.40;4.22;;;;;;;16.03;42.58;96213.75;5025184;28;20441;-68
2023/03/21 10:21:27;;;;;;;11.70;5.20;;;;;;;16.35;44.45;96219.47;5026625;28;20533;-69
2023/03/21 10:23:56;;;;;;;11.63;5.03;;;;;;;16.88;47.11;96208.69;5026625;28;21257;-69
2023/03/21 10:26:26;;;;;;;17.40;5.70;;;;;;;17.20;43.75;96205.53;5021830;28;20427;-68
2023/03/21 10:28:54;;;;;;;21.07;6.70;;;;;;;16.98;41.85;96203.56;5025729;28;20406;-69
2023/03/21 10:31:27;;;;;;;39.73;9.43;;;;;;;17.30;40.50;96195.91;5024957;28;20425;-69
2023/03/21 10:33:56;;;;;;;15.57;6.70;;;;;;;17.46;40.05;96196.47;5025345;28;20815;-70
2023/03/21 10:36:25;;;;;;;6.47;5.83;;;;;;;16.95;40.74;96206.47;5025311;28;20457;-69
2023/03/21 10:39:04;;;;;;;8.20;5.90;;;;;;;16.43;41.65;96195.09;5025836;28;20872;-69
2023/03/21 10:41:31;;;;;;;8.60;6.03;;;;;;;16.27;42.56;96205.91;5023133;28;20502;-68
2023/03/21 10:44:10;;;;;;;6.30;5.70;;;;;;;16.61;41.64;96200.91;5025936;28;20952;-68
2023/03/21 10:46:36;;;;;;;7.82;6.03;;;;;;;16.77;41.52;96198.84;5026006;28;20417;-69
2023/03/21 10:49:02;;;;;;;8.60;5.50;;;;;;;16.91;40.83;96198.72;5024005;28;20178;-69
2023/03/21 10:51:32;;;;;;;11.07;6.33;;;;;;;16.76;41.72;96198.94;5025063;28;20175;-69
2023/03/21 10:54:02;;;;;;;11.30;6.80;;;;;;;17.20;40.41;96192.25;5023249;28;20529;-69
2023/03/21 10:56:30;;;;;;;8.10;6.20;;;;;;;17.49;39.22;96198.06;5025143;28;20426;-69
2023/03/21 10:58:58;;;;;;;7.93;5.30;;;;;;;17.68;38.56;96184.25;5018431;28;21004;-70
2023/03/21 11:01:36;;;;;;;6.80;5.37;;;;;;;17.41;37.89;96193.31;5026991;28;20772;-70
2023/03/21 11:04:25;;;;;;;23.73;7.80;;;;;;;17.65;38.37;96190.63;5035165;28;20458;-69
2023/03/21 11:06:54;;;;;;;24.30;7.80;;;;;;;17.67;38.22;96188.72;5030856;28;20437;-70
2023/03/21 11:09:23;;;;;;;8.93;6.40;;;;;;;17.36;38.39;96190.13;5031061;28;20411;-69
2023/03/21 11:12:16;;;;;;;10.17;6.50;;;;;;;17.32;38.60;96186.03;5030069;28;20491;-69
2023/03/21 11:14:42;;;;;;;8.23;6.10;;;;;;;17.38;38.85;96193.53;5018530;28;20422;-71
2023/03/21 11:17:17;;;;;;;14.47;6.60;;;;;;;17.38;38.76;96190.88;5025652;28;20854;-68
2023/03/21 11:19:56;;;;;;;39.07;10.07;;;;;;;17.49;39.00;96184.78;5027944;28;20540;-69
2023/03/21 11:22:26;;;;;;;24.57;7.80;;;;;;;17.35;39.29;96181.34;5026491;28;20417;-70
2023/03/21 11:24:56;;;;;;;19.33;8.20;;;;;;;17.50;39.28;96175.84;5027297;28;20411;-70
2023/03/21 11:27:23;;;;;;;13.40;6.87;;;;;;;17.20;39.74;96179.00;5027456;28;21220;-70
2023/03/21 11:29:50;;;;;;;11.57;6.40;;;;;;;16.79;40.31;96177.56;5027721;28;20438;-69
2023/03/21 11:32:21;;;;;;;36.17;9.10;;;;;;;16.93;40.66;96178.25;5027906;28;20414;-69
2023/03/21 11:34:49;;;;;;;12.03;6.67;;;;;;;16.83;41.04;96182.53;5027457;28;20425;-69
2023/03/21 11:37:32;;;;;;;30.93;8.10;;;;;;;17.07;40.01;96168.44;5026521;28;20789;-68